sensor_id;sensor_type;location;lat;lon;timestamp;temperature;humidity
19261;DHT22;9764;48.114;11.670;2023-12-04T00:02:04;18.00;92.10
19261;DHT22;9764;48.114;11.670;2023-12-04T00:04:33;18.00;92.10
19261;DHT22;9764;48.114;11.670;2023-12-04T00:07:01;18.00;92.10
19261;DHT22;9764;48.114;11.670;2023-12-04T00:09:29;18.00;92.10
19261;DHT22;9764;48.114;11.670;2023-12-04T00:11:59;18.00;92.10
19261;DHT22;9764;48.114;11.670;2023-12-04T00:14:27;18.00;92.10
19261;DHT22;9764;48.114;11.670;2023-12-04T00:16:56;18.00;92.10
19261;DHT22;9764;48.114;11.670;2023-12-04T00:19:24;18.00;92.10
19261;DHT22;9764;48.114;11.670;2023-12-04T00:21:53;18.00;92.10
19261;DHT22;9764;48.114;11.670;2023-12-04T00:24:22;18.00;92.10
19261;DHT22;9764;48.114;11.670;2023-12-04T00:26:50;18.00;92.10
19261;DHT22;9764;48.114;11.670;2023-12-04T00:29:19;18.00;92.10
19261;DHT22;9764;48.114;11.670;2023-12-04T00:31:47;18.00;92.10
19261;DHT22;9764;48.114;11.670;2023-12-04T00:34:16;18.00;92.10
19261;DHT22;9764;48.114;11.670;2023-12-04T00:36:44;18.00;92.10
19261;DHT22;9764;48.114;11.670;2023-12-04T00:39:12;18.00;92.10
19261;DHT22;9764;48.114;11.670;2023-12-04T00:41:40;17.90;92.00
19261;DHT22;9764;48.114;11.670;2023-12-04T00:44:08;17.90;92.00
19261;DHT22;9764;48.114;11.670;2023-12-04T00:46:38;18.00;92.10
19261;DHT22;9764;48.114;11.670;2023-12-04T00:49:06;18.00;92.10
19261;DHT22;9764;48.114;11.670;2023-12-04T00:51:37;18.00;92.10
19261;DHT22;9764;48.114;11.670;2023-12-04T00:54:06;18.00;92.10
19261;DHT22;9764;48.114;11.670;2023-12-04T00:56:34;18.00;92.00
19261;DHT22;9764;48.114;11.670;2023-12-04T00:59:02;17.90;92.00
19261;DHT22;9764;48.114;11.670;2023-12-04T01:01:30;17.90;92.00
19261;DHT22;9764;48.114;11.670;2023-12-04T01:04:00;17.90;92.00
19261;DHT22;9764;48.114;11.670;2023-12-04T01:06:28;17.90;92.00
19261;DHT22;9764;48.114;11.670;2023-12-04T01:08:57;17.90;92.00
19261;DHT22;9764;48.114;11.670;2023-12-04T01:11:25;17.90;92.00
19261;DHT22;9764;48.114;11.670;2023-12-04T01:13:53;17.90;92.00
19261;DHT22;9764;48.114;11.670;2023-12-04T01:16:21;17.90;92.00
19261;DHT22;9764;48.114;11.670;2023-12-04T01:18:49;17.90;92.00
19261;DHT22;9764;48.114;11.670;2023-12-04T01:21:19;17.90;92.10
19261;DHT22;9764;48.114;11.670;2023-12-04T01:23:47;17.90;92.00
19261;DHT22;9764;48.114;11.670;2023-12-04T01:26:15;17.90;92.10
19261;DHT22;9764;48.114;11.670;2023-12-04T01:28:43;17.90;92.00
19261;DHT22;9764;48.114;11.670;2023-12-04T01:31:11;17.90;92.00
19261;DHT22;9764;48.114;11.670;2023-12-04T01:33:39;17.90;92.00
19261;DHT22;9764;48.114;11.670;2023-12-04T01:36:08;17.90;92.00
19261;DHT22;9764;48.114;11.670;2023-12-04T01:38:38;17.90;92.00
19261;DHT22;9764;48.114;11.670;2023-12-04T01:41:07;17.90;92.00
19261;DHT22;9764;48.114;11.670;2023-12-04T01:43:35;17.90;92.00
19261;DHT22;9764;48.114;11.670;2023-12-04T01:46:04;17.90;92.00
19261;DHT22;9764;48.114;11.670;2023-12-04T01:48:33;17.90;92.00
19261;DHT22;9764;48.114;11.670;2023-12-04T01:51:05;17.90;92.00
19261;DHT22;9764;48.114;11.670;2023-12-04T01:53:35;17.90;92.00
19261;DHT22;9764;48.114;11.670;2023-12-04T01:56:06;17.90;92.00
19261;DHT22;9764;48.114;11.670;2023-12-04T01:58:35;17.90;92.00
19261;DHT22;9764;48.114;11.670;2023-12-04T02:01:03;17.90;92.00
19261;DHT22;9764;48.114;11.670;2023-12-04T02:03:32;17.90;92.00
19261;DHT22;9764;48.114;11.670;2023-12-04T02:06:02;17.90;92.00
19261;DHT22;9764;48.114;11.670;2023-12-04T02:08:31;17.90;92.00
19261;DHT22;9764;48.114;11.670;2023-12-04T02:10:59;17.90;92.00
19261;DHT22;9764;48.114;11.670;2023-12-04T02:13:29;17.90;92.00
19261;DHT22;9764;48.114;11.670;2023-12-04T02:15:58;17.90;92.00
19261;DHT22;9764;48.114;11.670;2023-12-04T02:18:33;17.90;92.00
19261;DHT22;9764;48.114;11.670;2023-12-04T02:21:02;17.90;92.00
19261;DHT22;9764;48.114;11.670;2023-12-04T02:23:30;17.90;92.00
19261;DHT22;9764;48.114;11.670;2023-12-04T02:26:05;17.90;92.00
19261;DHT22;9764;48.114;11.670;2023-12-04T02:28:37;17.90;92.00
19261;DHT22;9764;48.114;11.670;2023-12-04T02:31:06;17.90;92.00
19261;DHT22;9764;48.114;11.670;2023-12-04T02:33:36;17.90;92.00
19261;DHT22;9764;48.114;11.670;2023-12-04T02:36:05;17.90;92.00
19261;DHT22;9764;48.114;11.670;2023-12-04T02:38:35;17.90;92.00
19261;DHT22;9764;48.114;11.670;2023-12-04T02:41:05;17.90;92.00
19261;DHT22;9764;48.114;11.670;2023-12-04T02:43:33;17.90;92.00
19261;DHT22;9764;48.114;11.670;2023-12-04T02:46:01;17.90;92.00
19261;DHT22;9764;48.114;11.670;2023-12-04T02:48:30;17.90;92.00
19261;DHT22;9764;48.114;11.670;2023-12-04T02:50:58;17.90;92.00
19261;DHT22;9764;48.114;11.670;2023-12-04T02:53:26;17.90;92.00
19261;DHT22;9764;48.114;11.670;2023-12-04T02:55:54;17.90;92.00
19261;DHT22;9764;48.114;11.670;2023-12-04T02:58:24;17.80;91.90
19261;DHT22;9764;48.114;11.670;2023-12-04T03:00:52;17.90;92.00
19261;DHT22;9764;48.114;11.670;2023-12-04T03:03:20;17.80;91.90
19261;DHT22;9764;48.114;11.670;2023-12-04T03:05:48;17.80;91.90
19261;DHT22;9764;48.114;11.670;2023-12-04T03:08:16;17.90;92.00
19261;DHT22;9764;48.114;11.670;2023-12-04T03:10:44;17.80;91.90
19261;DHT22;9764;48.114;11.670;2023-12-04T03:13:12;17.90;92.00
19261;DHT22;9764;48.114;11.670;2023-12-04T03:15:42;17.90;91.90
19261;DHT22;9764;48.114;11.670;2023-12-04T03:18:10;17.90;92.00
19261;DHT22;9764;48.114;11.670;2023-12-04T03:20:39;17.80;92.00
19261;DHT22;9764;48.114;11.670;2023-12-04T03:23:07;17.90;92.00
19261;DHT22;9764;48.114;11.670;2023-12-04T03:25:35;17.90;92.00
19261;DHT22;9764;48.114;11.670;2023-12-04T03:28:03;17.90;92.00
19261;DHT22;9764;48.114;11.670;2023-12-04T03:30:34;17.80;92.00
19261;DHT22;9764;48.114;11.670;2023-12-04T03:33:04;17.80;92.00
19261;DHT22;9764;48.114;11.670;2023-12-04T03:35:32;17.80;92.00
19261;DHT22;9764;48.114;11.670;2023-12-04T03:38:00;17.80;92.00
19261;DHT22;9764;48.114;11.670;2023-12-04T03:40:28;17.90;92.10
19261;DHT22;9764;48.114;11.670;2023-12-04T03:42:57;17.80;92.10
19261;DHT22;9764;48.114;11.670;2023-12-04T03:45:25;17.90;92.10
19261;DHT22;9764;48.114;11.670;2023-12-04T03:47:53;17.80;92.10
19261;DHT22;9764;48.114;11.670;2023-12-04T03:50:23;17.90;92.10
19261;DHT22;9764;48.114;11.670;2023-12-04T03:52:51;17.90;92.20
19261;DHT22;9764;48.114;11.670;2023-12-04T03:55:19;17.90;92.20
19261;DHT22;9764;48.114;11.670;2023-12-04T03:57:47;17.90;92.20
19261;DHT22;9764;48.114;11.670;2023-12-04T04:00:16;17.90;92.20
19261;DHT22;9764;48.114;11.670;2023-12-04T04:02:44;17.90;92.20
19261;DHT22;9764;48.114;11.670;2023-12-04T04:05:12;17.90;92.20
19261;DHT22;9764;48.114;11.670;2023-12-04T04:07:41;17.90;92.20
19261;DHT22;9764;48.114;11.670;2023-12-04T04:10:10;17.90;92.20
19261;DHT22;9764;48.114;11.670;2023-12-04T04:12:38;17.90;92.20
19261;DHT22;9764;48.114;11.670;2023-12-04T04:15:07;17.90;92.20
19261;DHT22;9764;48.114;11.670;2023-12-04T04:17:35;17.80;92.20
19261;DHT22;9764;48.114;11.670;2023-12-04T04:20:05;17.90;92.30
19261;DHT22;9764;48.114;11.670;2023-12-04T04:22:33;17.90;92.20
19261;DHT22;9764;48.114;11.670;2023-12-04T04:25:07;17.90;92.20
19261;DHT22;9764;48.114;11.670;2023-12-04T04:27:36;17.90;92.20
19261;DHT22;9764;48.114;11.670;2023-12-04T04:30:05;17.90;92.30
19261;DHT22;9764;48.114;11.670;2023-12-04T04:32:33;17.90;92.30
19261;DHT22;9764;48.114;11.670;2023-12-04T04:35:01;17.90;92.20
19261;DHT22;9764;48.114;11.670;2023-12-04T04:37:30;17.90;92.30
19261;DHT22;9764;48.114;11.670;2023-12-04T04:39:58;17.90;92.30
19261;DHT22;9764;48.114;11.670;2023-12-04T04:42:28;17.90;92.20
19261;DHT22;9764;48.114;11.670;2023-12-04T04:44:56;17.90;92.30
19261;DHT22;9764;48.114;11.670;2023-12-04T04:47:25;17.90;92.30
19261;DHT22;9764;48.114;11.670;2023-12-04T04:49:53;17.90;92.30
19261;DHT22;9764;48.114;11.670;2023-12-04T04:52:21;17.90;92.30
19261;DHT22;9764;48.114;11.670;2023-12-04T04:54:50;17.90;92.30
19261;DHT22;9764;48.114;11.670;2023-12-04T04:57:18;17.90;92.30
19261;DHT22;9764;48.114;11.670;2023-12-04T04:59:47;17.80;92.30
19261;DHT22;9764;48.114;11.670;2023-12-04T05:02:15;17.90;92.30
19261;DHT22;9764;48.114;11.670;2023-12-04T05:04:44;17.90;92.30
19261;DHT22;9764;48.114;11.670;2023-12-04T05:07:12;17.80;92.30
19261;DHT22;9764;48.114;11.670;2023-12-04T05:09:40;17.90;92.30
19261;DHT22;9764;48.114;11.670;2023-12-04T05:12:08;17.90;92.30
19261;DHT22;9764;48.114;11.670;2023-12-04T05:14:37;17.80;92.30
19261;DHT22;9764;48.114;11.670;2023-12-04T05:17:06;17.90;92.30
19261;DHT22;9764;48.114;11.670;2023-12-04T05:19:34;17.90;92.20
19261;DHT22;9764;48.114;11.670;2023-12-04T05:22:03;17.90;92.30
19261;DHT22;9764;48.114;11.670;2023-12-04T05:24:31;17.80;92.20
19261;DHT22;9764;48.114;11.670;2023-12-04T05:26:59;17.90;92.20
19261;DHT22;9764;48.114;11.670;2023-12-04T05:29:28;17.90;92.20
19261;DHT22;9764;48.114;11.670;2023-12-04T05:31:56;17.90;92.20
19261;DHT22;9764;48.114;11.670;2023-12-04T05:34:25;17.90;92.20
19261;DHT22;9764;48.114;11.670;2023-12-04T05:36:53;17.90;92.20
19261;DHT22;9764;48.114;11.670;2023-12-04T05:39:21;17.90;92.10
19261;DHT22;9764;48.114;11.670;2023-12-04T05:41:50;17.90;92.10
19261;DHT22;9764;48.114;11.670;2023-12-04T05:44:18;17.90;92.10
19261;DHT22;9764;48.114;11.670;2023-12-04T05:46:46;17.90;92.10
19261;DHT22;9764;48.114;11.670;2023-12-04T05:49:14;17.90;92.10
19261;DHT22;9764;48.114;11.670;2023-12-04T05:51:43;17.90;92.10
19261;DHT22;9764;48.114;11.670;2023-12-04T05:54:12;17.90;92.40
19261;DHT22;9764;48.114;11.670;2023-12-04T05:56:40;17.90;92.10
19261;DHT22;9764;48.114;11.670;2023-12-04T05:59:08;17.90;92.00
19261;DHT22;9764;48.114;11.670;2023-12-04T06:01:36;17.90;92.00
19261;DHT22;9764;48.114;11.670;2023-12-04T06:04:04;17.90;92.10
19261;DHT22;9764;48.114;11.670;2023-12-04T06:06:33;17.90;92.00
19261;DHT22;9764;48.114;11.670;2023-12-04T06:09:02;17.90;92.00
19261;DHT22;9764;48.114;11.670;2023-12-04T06:11:30;17.90;92.00
19261;DHT22;9764;48.114;11.670;2023-12-04T06:13:59;17.90;92.00
19261;DHT22;9764;48.114;11.670;2023-12-04T06:16:27;17.90;92.00
19261;DHT22;9764;48.114;11.670;2023-12-04T06:18:57;17.90;92.00
19261;DHT22;9764;48.114;11.670;2023-12-04T06:21:25;17.90;92.00
19261;DHT22;9764;48.114;11.670;2023-12-04T06:23:54;17.90;92.00
19261;DHT22;9764;48.114;11.670;2023-12-04T06:26:24;17.90;92.00
19261;DHT22;9764;48.114;11.670;2023-12-04T06:28:53;17.90;92.00
19261;DHT22;9764;48.114;11.670;2023-12-04T06:31:22;17.90;92.00
19261;DHT22;9764;48.114;11.670;2023-12-04T06:33:51;17.90;92.00
19261;DHT22;9764;48.114;11.670;2023-12-04T06:36:19;17.90;91.90
19261;DHT22;9764;48.114;11.670;2023-12-04T06:38:52;17.90;92.00
19261;DHT22;9764;48.114;11.670;2023-12-04T06:41:21;17.90;91.90
19261;DHT22;9764;48.114;11.670;2023-12-04T06:43:51;17.90;91.90
19261;DHT22;9764;48.114;11.670;2023-12-04T06:46:21;17.90;91.90
19261;DHT22;9764;48.114;11.670;2023-12-04T06:48:52;17.90;91.90
19261;DHT22;9764;48.114;11.670;2023-12-04T06:51:22;17.90;91.90
19261;DHT22;9764;48.114;11.670;2023-12-04T06:53:50;17.90;91.90
19261;DHT22;9764;48.114;11.670;2023-12-04T06:56:19;17.90;91.90
19261;DHT22;9764;48.114;11.670;2023-12-04T06:58:47;17.90;91.90
19261;DHT22;9764;48.114;11.670;2023-12-04T07:01:16;17.90;91.90
19261;DHT22;9764;48.114;11.670;2023-12-04T07:03:45;17.90;91.90
19261;DHT22;9764;48.114;11.670;2023-12-04T07:06:13;17.90;91.90
19261;DHT22;9764;48.114;11.670;2023-12-04T07:08:42;17.90;91.90
19261;DHT22;9764;48.114;11.670;2023-12-04T07:11:10;17.90;91.90
19261;DHT22;9764;48.114;11.670;2023-12-04T07:13:41;17.90;91.90
19261;DHT22;9764;48.114;11.670;2023-12-04T07:16:10;17.90;91.90
19261;DHT22;9764;48.114;11.670;2023-12-04T07:18:39;17.90;91.90
19261;DHT22;9764;48.114;11.670;2023-12-04T07:21:08;17.90;91.90
19261;DHT22;9764;48.114;11.670;2023-12-04T07:23:36;17.90;91.90
19261;DHT22;9764;48.114;11.670;2023-12-04T07:26:05;17.90;91.80
19261;DHT22;9764;48.114;11.670;2023-12-04T07:28:33;17.90;91.80
19261;DHT22;9764;48.114;11.670;2023-12-04T07:31:02;17.90;91.80
19261;DHT22;9764;48.114;11.670;2023-12-04T07:33:30;17.90;91.80
19261;DHT22;9764;48.114;11.670;2023-12-04T07:36:01;17.90;91.80
19261;DHT22;9764;48.114;11.670;2023-12-04T07:38:29;17.90;91.80
19261;DHT22;9764;48.114;11.670;2023-12-04T07:40:57;17.90;91.80
19261;DHT22;9764;48.114;11.670;2023-12-04T07:43:25;17.90;91.80
19261;DHT22;9764;48.114;11.670;2023-12-04T07:45:55;18.00;91.90
19261;DHT22;9764;48.114;11.670;2023-12-04T07:48:23;18.00;91.80
19261;DHT22;9764;48.114;11.670;2023-12-04T07:50:51;18.00;91.80
19261;DHT22;9764;48.114;11.670;2023-12-04T07:53:21;18.00;91.80
19261;DHT22;9764;48.114;11.670;2023-12-04T07:55:49;17.90;91.80
19261;DHT22;9764;48.114;11.670;2023-12-04T07:58:18;18.00;91.80
19261;DHT22;9764;48.114;11.670;2023-12-04T08:00:47;18.00;91.80
19261;DHT22;9764;48.114;11.670;2023-12-04T08:03:15;18.00;91.80
19261;DHT22;9764;48.114;11.670;2023-12-04T08:05:43;18.00;91.80
19261;DHT22;9764;48.114;11.670;2023-12-04T08:08:11;18.00;91.80
19261;DHT22;9764;48.114;11.670;2023-12-04T08:10:41;18.00;91.80
19261;DHT22;9764;48.114;11.670;2023-12-04T08:13:10;18.00;91.80
19261;DHT22;9764;48.114;11.670;2023-12-04T08:15:38;18.00;91.80
19261;DHT22;9764;48.114;11.670;2023-12-04T08:18:07;18.00;91.80
19261;DHT22;9764;48.114;11.670;2023-12-04T08:20:35;18.00;91.80
19261;DHT22;9764;48.114;11.670;2023-12-04T08:23:07;18.00;91.70
19261;DHT22;9764;48.114;11.670;2023-12-04T08:25:35;18.00;91.70
19261;DHT22;9764;48.114;11.670;2023-12-04T08:28:06;18.00;91.80
19261;DHT22;9764;48.114;11.670;2023-12-04T08:30:36;18.00;91.70
19261;DHT22;9764;48.114;11.670;2023-12-04T08:33:04;18.00;91.70
19261;DHT22;9764;48.114;11.670;2023-12-04T08:35:33;18.00;91.70
19261;DHT22;9764;48.114;11.670;2023-12-04T08:38:02;18.00;91.70
19261;DHT22;9764;48.114;11.670;2023-12-04T08:40:30;18.00;91.70
19261;DHT22;9764;48.114;11.670;2023-12-04T08:42:58;18.00;91.70
19261;DHT22;9764;48.114;11.670;2023-12-04T08:45:28;18.00;91.70
19261;DHT22;9764;48.114;11.670;2023-12-04T08:47:56;18.00;91.70
19261;DHT22;9764;48.114;11.670;2023-12-04T08:50:25;18.00;91.70
19261;DHT22;9764;48.114;11.670;2023-12-04T08:52:53;18.00;91.70
19261;DHT22;9764;48.114;11.670;2023-12-04T08:55:21;18.00;91.70
19261;DHT22;9764;48.114;11.670;2023-12-04T08:57:49;18.00;91.70
19261;DHT22;9764;48.114;11.670;2023-12-04T09:00:18;18.00;91.70
19261;DHT22;9764;48.114;11.670;2023-12-04T09:02:48;18.00;91.70
19261;DHT22;9764;48.114;11.670;2023-12-04T09:05:30;18.00;91.70
19261;DHT22;9764;48.114;11.670;2023-12-04T09:07:59;18.00;91.70
19261;DHT22;9764;48.114;11.670;2023-12-04T09:10:48;18.00;91.60
19261;DHT22;9764;48.114;11.670;2023-12-04T09:13:37;18.00;91.60
19261;DHT22;9764;48.114;11.670;2023-12-04T09:16:06;18.00;91.60
19261;DHT22;9764;48.114;11.670;2023-12-04T09:18:36;18.00;91.60
19261;DHT22;9764;48.114;11.670;2023-12-04T09:21:05;18.00;91.60
19261;DHT22;9764;48.114;11.670;2023-12-04T09:23:35;18.00;91.60
19261;DHT22;9764;48.114;11.670;2023-12-04T09:26:03;18.00;91.60
19261;DHT22;9764;48.114;11.670;2023-12-04T09:28:32;18.10;91.60
19261;DHT22;9764;48.114;11.670;2023-12-04T09:31:00;18.10;91.60
19261;DHT22;9764;48.114;11.670;2023-12-04T09:33:28;18.10;91.60
19261;DHT22;9764;48.114;11.670;2023-12-04T09:35:58;18.10;91.60
19261;DHT22;9764;48.114;11.670;2023-12-04T09:38:26;18.10;91.60
19261;DHT22;9764;48.114;11.670;2023-12-04T09:40:58;18.10;91.60
19261;DHT22;9764;48.114;11.670;2023-12-04T09:43:31;18.10;91.60
19261;DHT22;9764;48.114;11.670;2023-12-04T09:45:59;18.10;91.60
19261;DHT22;9764;48.114;11.670;2023-12-04T09:48:29;18.10;91.60
19261;DHT22;9764;48.114;11.670;2023-12-04T09:51:01;18.10;91.60
19261;DHT22;9764;48.114;11.670;2023-12-04T09:53:30;18.10;91.50
19261;DHT22;9764;48.114;11.670;2023-12-04T09:56:00;18.10;91.50
19261;DHT22;9764;48.114;11.670;2023-12-04T09:58:31;18.10;91.60
19261;DHT22;9764;48.114;11.670;2023-12-04T10:01:00;18.10;91.50
19261;DHT22;9764;48.114;11.670;2023-12-04T10:03:29;18.10;91.50
19261;DHT22;9764;48.114;11.670;2023-12-04T10:06:00;18.10;91.50
19261;DHT22;9764;48.114;11.670;2023-12-04T10:08:28;18.10;91.50
19261;DHT22;9764;48.114;11.670;2023-12-04T10:10:58;18.10;91.50
19261;DHT22;9764;48.114;11.670;2023-12-04T10:13:27;18.10;91.50
19261;DHT22;9764;48.114;11.670;2023-12-04T10:16:31;18.10;91.50
19261;DHT22;9764;48.114;11.670;2023-12-04T10:19:14;18.10;91.50
19261;DHT22;9764;48.114;11.670;2023-12-04T10:21:46;18.10;91.50
19261;DHT22;9764;48.114;11.670;2023-12-04T10:24:29;18.10;91.50
19261;DHT22;9764;48.114;11.670;2023-12-04T10:26:58;18.10;91.40
19261;DHT22;9764;48.114;11.670;2023-12-04T10:29:39;18.10;91.40
19261;DHT22;9764;48.114;11.670;2023-12-04T10:32:08;18.20;91.50
19261;DHT22;9764;48.114;11.670;2023-12-04T10:34:37;18.20;91.40
19261;DHT22;9764;48.114;11.670;2023-12-04T10:37:07;18.20;91.40
19261;DHT22;9764;48.114;11.670;2023-12-04T10:39:46;18.20;91.40
19261;DHT22;9764;48.114;11.670;2023-12-04T10:42:25;18.20;91.40
19261;DHT22;9764;48.114;11.670;2023-12-04T10:44:55;18.20;91.40
19261;DHT22;9764;48.114;11.670;2023-12-04T10:47:24;18.20;91.40
19261;DHT22;9764;48.114;11.670;2023-12-04T10:49:52;18.20;91.40
19261;DHT22;9764;48.114;11.670;2023-12-04T10:52:23;18.20;91.30
19261;DHT22;9764;48.114;11.670;2023-12-04T10:54:52;18.30;91.30
19261;DHT22;9764;48.114;11.670;2023-12-04T10:57:23;18.30;91.30
19261;DHT22;9764;48.114;11.670;2023-12-04T10:59:56;18.30;91.30
19261;DHT22;9764;48.114;11.670;2023-12-04T11:02:26;18.20;91.30
19261;DHT22;9764;48.114;11.670;2023-12-04T11:05:01;18.30;91.30
19261;DHT22;9764;48.114;11.670;2023-12-04T11:07:35;18.30;91.30
19261;DHT22;9764;48.114;11.670;2023-12-04T11:10:23;18.30;91.40
19261;DHT22;9764;48.114;11.670;2023-12-04T11:12:59;18.30;91.40
19261;DHT22;9764;48.114;11.670;2023-12-04T11:15:29;18.30;91.30
19261;DHT22;9764;48.114;11.670;2023-12-04T11:18:00;18.30;91.40
19261;DHT22;9764;48.114;11.670;2023-12-04T11:20:31;18.30;91.40
19261;DHT22;9764;48.114;11.670;2023-12-04T11:23:06;18.30;91.40
19261;DHT22;9764;48.114;11.670;2023-12-04T11:25:36;18.30;91.40
19261;DHT22;9764;48.114;11.670;2023-12-04T11:28:04;18.30;91.40
19261;DHT22;9764;48.114;11.670;2023-12-04T11:30:33;18.30;91.40
19261;DHT22;9764;48.114;11.670;2023-12-04T11:33:02;18.30;91.40
19261;DHT22;9764;48.114;11.670;2023-12-04T11:35:32;18.40;91.40
19261;DHT22;9764;48.114;11.670;2023-12-04T11:38:01;18.40;91.40
19261;DHT22;9764;48.114;11.670;2023-12-04T11:40:30;18.40;91.40
19261;DHT22;9764;48.114;11.670;2023-12-04T11:42:58;18.40;91.40
19261;DHT22;9764;48.114;11.670;2023-12-04T11:45:32;18.40;91.40
19261;DHT22;9764;48.114;11.670;2023-12-04T11:48:01;18.40;91.40
19261;DHT22;9764;48.114;11.670;2023-12-04T11:50:30;18.40;91.40
19261;DHT22;9764;48.114;11.670;2023-12-04T11:52:58;18.40;91.40
19261;DHT22;9764;48.114;11.670;2023-12-04T11:55:29;18.40;91.40
19261;DHT22;9764;48.114;11.670;2023-12-04T11:57:57;18.40;91.40
19261;DHT22;9764;48.114;11.670;2023-12-04T12:00:25;18.40;91.40
19261;DHT22;9764;48.114;11.670;2023-12-04T12:03:02;18.40;91.40
19261;DHT22;9764;48.114;11.670;2023-12-04T12:05:49;18.40;91.40
19261;DHT22;9764;48.114;11.670;2023-12-04T12:08:20;18.50;91.40
19261;DHT22;9764;48.114;11.670;2023-12-04T12:10:53;18.50;91.40
19261;DHT22;9764;48.114;11.670;2023-12-04T12:13:21;18.40;91.40
19261;DHT22;9764;48.114;11.670;2023-12-04T12:15:53;18.50;91.40
19261;DHT22;9764;48.114;11.670;2023-12-04T12:18:22;18.50;91.40
19261;DHT22;9764;48.114;11.670;2023-12-04T12:20:54;18.50;91.40
19261;DHT22;9764;48.114;11.670;2023-12-04T12:23:23;18.50;91.30
19261;DHT22;9764;48.114;11.670;2023-12-04T12:25:53;18.50;91.40
19261;DHT22;9764;48.114;11.670;2023-12-04T12:28:22;18.50;91.30
19261;DHT22;9764;48.114;11.670;2023-12-04T12:30:50;18.50;91.40
19261;DHT22;9764;48.114;11.670;2023-12-04T12:33:20;18.50;91.40
19261;DHT22;9764;48.114;11.670;2023-12-04T12:35:50;18.50;91.40
19261;DHT22;9764;48.114;11.670;2023-12-04T12:38:29;18.50;91.30
19261;DHT22;9764;48.114;11.670;2023-12-04T12:41:06;18.50;91.40
19261;DHT22;9764;48.114;11.670;2023-12-04T12:43:35;18.50;91.40
19261;DHT22;9764;48.114;11.670;2023-12-04T12:46:05;18.50;91.30
19261;DHT22;9764;48.114;11.670;2023-12-04T12:48:33;18.50;91.40
19261;DHT22;9764;48.114;11.670;2023-12-04T12:51:02;18.50;91.40
19261;DHT22;9764;48.114;11.670;2023-12-04T12:53:32;18.50;91.40
19261;DHT22;9764;48.114;11.670;2023-12-04T12:56:02;18.50;91.30
19261;DHT22;9764;48.114;11.670;2023-12-04T12:58:31;18.50;91.40
19261;DHT22;9764;48.114;11.670;2023-12-04T13:01:00;18.50;91.40
19261;DHT22;9764;48.114;11.670;2023-12-04T13:03:30;18.50;91.40
19261;DHT22;9764;48.114;11.670;2023-12-04T13:05:59;18.50;91.40
19261;DHT22;9764;48.114;11.670;2023-12-04T13:08:27;18.50;91.40
19261;DHT22;9764;48.114;11.670;2023-12-04T13:10:55;18.50;91.40
19261;DHT22;9764;48.114;11.670;2023-12-04T13:13:26;18.50;91.40
19261;DHT22;9764;48.114;11.670;2023-12-04T13:15:55;18.50;91.40
19261;DHT22;9764;48.114;11.670;2023-12-04T13:18:23;18.50;91.40
19261;DHT22;9764;48.114;11.670;2023-12-04T13:20:51;18.50;91.40
19261;DHT22;9764;48.114;11.670;2023-12-04T13:23:20;18.40;91.40
19261;DHT22;9764;48.114;11.670;2023-12-04T13:25:51;18.50;91.80
19261;DHT22;9764;48.114;11.670;2023-12-04T13:28:21;18.50;91.40
19261;DHT22;9764;48.114;11.670;2023-12-04T13:31:03;18.50;91.40
19261;DHT22;9764;48.114;11.670;2023-12-04T13:33:31;18.50;91.40
19261;DHT22;9764;48.114;11.670;2023-12-04T13:36:00;18.50;91.40
19261;DHT22;9764;48.114;11.670;2023-12-04T13:38:28;18.50;91.40
19261;DHT22;9764;48.114;11.670;2023-12-04T13:41:04;18.50;91.40
19261;DHT22;9764;48.114;11.670;2023-12-04T13:43:56;18.50;91.40
19261;DHT22;9764;48.114;11.670;2023-12-04T13:46:27;18.50;91.50
19261;DHT22;9764;48.114;11.670;2023-12-04T13:48:57;18.50;91.50
19261;DHT22;9764;48.114;11.670;2023-12-04T13:51:25;18.50;91.50
19261;DHT22;9764;48.114;11.670;2023-12-04T13:53:53;18.50;91.50
19261;DHT22;9764;48.114;11.670;2023-12-04T13:56:28;18.40;91.40
19261;DHT22;9764;48.114;11.670;2023-12-04T13:59:09;18.50;91.50
19261;DHT22;9764;48.114;11.670;2023-12-04T14:01:47;18.50;91.40
19261;DHT22;9764;48.114;11.670;2023-12-04T14:04:17;18.50;91.40
19261;DHT22;9764;48.114;11.670;2023-12-04T14:06:45;18.50;91.40
19261;DHT22;9764;48.114;11.670;2023-12-04T14:09:14;18.40;91.40
19261;DHT22;9764;48.114;11.670;2023-12-04T14:11:44;18.50;91.40
19261;DHT22;9764;48.114;11.670;2023-12-04T14:14:12;18.50;91.50
19261;DHT22;9764;48.114;11.670;2023-12-04T14:16:41;18.40;91.40
19261;DHT22;9764;48.114;11.670;2023-12-04T14:19:11;18.40;91.50
19261;DHT22;9764;48.114;11.670;2023-12-04T14:21:39;18.40;91.50
19261;DHT22;9764;48.114;11.670;2023-12-04T14:24:07;18.40;91.50
19261;DHT22;9764;48.114;11.670;2023-12-04T14:26:36;18.40;91.50
19261;DHT22;9764;48.114;11.670;2023-12-04T14:29:04;18.40;91.50
19261;DHT22;9764;48.114;11.670;2023-12-04T14:31:34;18.50;91.50
19261;DHT22;9764;48.114;11.670;2023-12-04T14:34:03;18.50;91.50
19261;DHT22;9764;48.114;11.670;2023-12-04T14:36:32;18.50;91.50
19261;DHT22;9764;48.114;11.670;2023-12-04T14:39:00;18.50;91.50
19261;DHT22;9764;48.114;11.670;2023-12-04T14:41:29;18.40;91.50
19261;DHT22;9764;48.114;11.670;2023-12-04T14:43:58;18.50;91.60
19261;DHT22;9764;48.114;11.670;2023-12-04T14:46:26;18.50;91.60
19261;DHT22;9764;48.114;11.670;2023-12-04T14:48:55;18.50;91.60
19261;DHT22;9764;48.114;11.670;2023-12-04T14:51:23;18.40;91.50
19261;DHT22;9764;48.114;11.670;2023-12-04T14:53:53;18.40;91.50
19261;DHT22;9764;48.114;11.670;2023-12-04T14:56:41;18.40;91.50
19261;DHT22;9764;48.114;11.670;2023-12-04T14:59:36;18.50;91.60
19261;DHT22;9764;48.114;11.670;2023-12-04T15:02:46;18.40;91.50
19261;DHT22;9764;48.114;11.670;2023-12-04T15:05:28;18.40;91.50
19261;DHT22;9764;48.114;11.670;2023-12-04T15:08:35;18.50;91.50
19261;DHT22;9764;48.114;11.670;2023-12-04T15:11:46;18.40;91.50
19261;DHT22;9764;48.114;11.670;2023-12-04T15:14:41;18.40;91.50
19261;DHT22;9764;48.114;11.670;2023-12-04T15:17:16;18.40;91.60
19261;DHT22;9764;48.114;11.670;2023-12-04T15:19:56;18.40;91.50
19261;DHT22;9764;48.114;11.670;2023-12-04T15:22:44;18.40;91.60
19261;DHT22;9764;48.114;11.670;2023-12-04T15:25:12;18.40;91.60
19261;DHT22;9764;48.114;11.670;2023-12-04T15:27:43;18.40;91.60
19261;DHT22;9764;48.114;11.670;2023-12-04T15:30:11;18.40;91.60
19261;DHT22;9764;48.114;11.670;2023-12-04T15:32:39;18.40;91.70
19261;DHT22;9764;48.114;11.670;2023-12-04T15:35:07;18.40;91.70
19261;DHT22;9764;48.114;11.670;2023-12-04T15:37:39;18.40;91.70
19261;DHT22;9764;48.114;11.670;2023-12-04T15:40:07;18.40;91.70
19261;DHT22;9764;48.114;11.670;2023-12-04T15:42:38;18.40;91.80
19261;DHT22;9764;48.114;11.670;2023-12-04T15:45:07;18.40;91.80
19261;DHT22;9764;48.114;11.670;2023-12-04T15:47:35;18.40;91.70
19261;DHT22;9764;48.114;11.670;2023-12-04T15:50:05;18.40;91.70